Time;durP1;ratioP1;P1;durP2;ratioP2;P2;SDS_P1;SDS_P2;PMS_P1;PMS_P2;Temp;Humidity;BMP_temperature;BMP_pressure;BME280_temperature;BME280_humidity;BME280_pressure;Samples;Min_cycle;Max_cycle;Signal;HPM_P1;HPM_P2
2021/05/03 00:00:37;;;;;;;4.20;3.27;;;4.40;99.90;;;;;;5033529;28;20174;-77
2021/05/03 00:03:02;;;;;;;7.43;3.97;;;4.40;99.90;;;;;;5000662;28;20316;-76
2021/05/03 00:05:28;;;;;;;5.33;3.50;;;4.30;99.90;;;;;;5033421;28;20195;-77
2021/05/03 00:07:54;;;;;;;4.00;3.50;;;4.30;99.90;;;;;;5034756;28;20182;-77
2021/05/03 00:10:19;;;;;;;4.93;3.20;;;4.30;99.90;;;;;;5016953;28;20174;-75
2021/05/03 00:12:45;;;;;;;5.13;3.60;;;4.30;99.90;;;;;;5000525;28;20184;-75
2021/05/03 00:15:12;;;;;;;5.23;3.70;;;4.20;99.90;;;;;;5000311;28;20181;-77
2021/05/03 00:17:38;;;;;;;3.63;3.20;;;4.30;99.90;;;;;;5016903;28;20659;-75
2021/05/03 00:20:04;;;;;;;3.77;3.20;;;4.30;99.90;;;;;;5033360;28;20257;-76
2021/05/03 00:22:29;;;;;;;5.80;3.60;;;4.30;99.90;;;;;;5016895;28;20249;-76
2021/05/03 00:24:55;;;;;;;4.97;3.80;;;4.30;99.90;;;;;;5016597;28;20656;-77
2021/05/03 00:27:20;;;;;;;5.57;3.43;;;4.20;99.90;;;;;;5016427;28;20210;-77
2021/05/03 00:29:46;;;;;;;6.13;3.57;;;4.20;99.90;;;;;;5033160;28;20171;-77
2021/05/03 00:32:11;;;;;;;6.10;3.73;;;4.10;99.90;;;;;;5033149;28;20209;-75
2021/05/03 00:34:37;;;;;;;5.53;3.90;;;4.00;99.90;;;;;;5016311;28;20239;-77
2021/05/03 00:37:02;;;;;;;6.97;3.90;;;4.00;99.90;;;;;;5033084;28;20196;-77
2021/05/03 00:39:28;;;;;;;5.30;3.73;;;4.00;99.90;;;;;;5032954;28;20177;-76
2021/05/03 00:41:53;;;;;;;3.97;3.57;;;4.00;99.90;;;;;;5032941;28;20627;-77
2021/05/03 00:44:19;;;;;;;5.23;3.80;;;4.10;99.90;;;;;;5015948;28;20758;-77
2021/05/03 00:46:44;;;;;;;5.33;3.77;;;4.10;99.90;;;;;;5016305;28;20219;-76
2021/05/03 00:49:10;;;;;;;4.63;3.60;;;4.10;99.90;;;;;;5032800;28;20721;-75
2021/05/03 00:51:35;;;;;;;6.37;3.97;;;4.00;99.90;;;;;;5033987;28;20644;-77
2021/05/03 00:54:01;;;;;;;6.13;3.70;;;4.00;99.90;;;;;;5016037;28;20204;-77
2021/05/03 00:56:27;;;;;;;6.90;4.63;;;3.90;99.90;;;;;;5015860;28;20220;-75
2021/05/03 00:58:52;;;;;;;8.33;4.20;;;3.90;99.90;;;;;;5031094;28;20695;-75
2021/05/03 01:01:18;;;;;;;4.90;4.00;;;3.90;99.90;;;;;;5019397;28;20186;-77
2021/05/03 01:03:43;;;;;;;5.20;3.53;;;3.80;99.90;;;;;;5052424;28;20215;-76
2021/05/03 01:06:09;;;;;;;5.07;4.10;;;3.80;99.90;;;;;;5052143;28;20190;-76
2021/05/03 01:08:34;;;;;;;4.87;3.90;;;3.80;99.90;;;;;;5052262;28;20171;-75
2021/05/03 01:11:00;;;;;;;6.77;4.33;;;3.70;99.90;;;;;;5052245;28;20173;-77
2021/05/03 01:13:26;;;;;;;6.20;3.83;;;3.80;99.90;;;;;;5035789;28;20749;-77
2021/05/03 01:15:52;;;;;;;4.80;4.00;;;3.80;99.90;;;;;;5035251;28;20699;-77
2021/05/03 01:18:23;;;;;;;5.40;4.00;;;3.80;99.90;;;;;;5051977;28;20180;-77
2021/05/03 01:20:49;;;;;;;6.17;4.20;;;3.70;99.90;;;;;;5050062;28;20185;-75
2021/05/03 01:23:14;;;;;;;6.50;4.07;;;3.70;99.90;;;;;;5033289;28;20224;-76
2021/05/03 01:25:42;;;;;;;6.13;5.00;;;3.70;99.90;;;;;;5033073;28;20730;-76
2021/05/03 01:28:07;;;;;;;8.20;4.43;;;3.70;99.90;;;;;;5015934;28;20235;-76
2021/05/03 01:30:40;;;;;;;8.23;4.60;;;3.70;99.90;;;;;;5015319;28;20634;-75
2021/05/03 01:33:07;;;;;;;7.97;4.50;;;3.70;99.90;;;;;;5015699;28;20205;-75
2021/05/03 01:35:33;;;;;;;6.77;4.23;;;3.70;99.90;;;;;;5031707;28;20909;-76
2021/05/03 01:37:59;;;;;;;6.57;4.50;;;3.70;99.90;;;;;;5015334;28;20176;-75
2021/05/03 01:40:26;;;;;;;7.30;4.63;;;3.60;99.90;;;;;;5031829;28;20207;-76
2021/05/03 01:42:52;;;;;;;5.20;4.40;;;3.60;99.90;;;;;;5031778;28;20197;-75
2021/05/03 01:45:21;;;;;;;5.83;4.80;;;3.60;99.90;;;;;;5014971;28;20182;-76
2021/05/03 01:47:47;;;;;;;5.70;4.53;;;3.70;99.90;;;;;;5015696;28;20672;-74
2021/05/03 01:50:13;;;;;;;5.50;4.80;;;3.70;99.90;;;;;;5015117;28;20204;-77
2021/05/03 01:52:39;;;;;;;7.33;4.80;;;3.70;99.90;;;;;;4998773;28;20180;-76
2021/05/03 01:55:05;;;;;;;8.33;4.83;;;3.60;99.90;;;;;;5014821;28;20264;-76
2021/05/03 01:57:30;;;;;;;5.60;4.47;;;3.60;99.90;;;;;;5031309;28;20205;-75
2021/05/03 01:59:56;;;;;;;6.97;4.87;;;3.50;99.90;;;;;;5015093;28;20569;-75
2021/05/03 02:02:22;;;;;;;6.03;4.83;;;3.60;99.90;;;;;;5014912;28;20193;-76
2021/05/03 02:04:47;;;;;;;5.60;4.40;;;3.70;99.90;;;;;;5032406;28;20185;-75
2021/05/03 02:07:14;;;;;;;6.60;4.87;;;3.70;99.90;;;;;;5031352;28;20542;-77
2021/05/03 02:09:44;;;;;;;7.07;5.37;;;3.60;99.90;;;;;;5014813;28;20196;-76
2021/05/03 02:12:09;;;;;;;8.63;5.17;;;3.60;99.90;;;;;;5014305;28;20182;-77
2021/05/03 02:14:36;;;;;;;6.13;4.80;;;3.50;99.90;;;;;;5031126;28;20180;-76
2021/05/03 02:17:02;;;;;;;6.33;4.80;;;3.50;99.90;;;;;;5014214;28;20194;-75
2021/05/03 02:19:27;;;;;;;8.80;5.10;;;3.40;99.90;;;;;;4998136;28;20225;-77
2021/05/03 02:21:53;;;;;;;9.77;5.03;;;3.40;99.90;;;;;;5031179;28;20183;-75
2021/05/03 02:24:18;;;;;;;8.20;5.57;;;3.40;99.90;;;;;;5031872;28;20301;-76
2021/05/03 02:26:44;;;;;;;5.77;5.10;;;3.40;99.90;;;;;;5014558;28;20274;-75
2021/05/03 02:29:09;;;;;;;8.20;5.37;;;3.30;99.90;;;;;;5014555;28;20186;-76
2021/05/03 02:31:35;;;;;;;6.23;4.93;;;3.30;99.90;;;;;;5014600;28;20263;-76
2021/05/03 02:34:00;;;;;;;8.13;5.10;;;3.40;99.90;;;;;;5014294;28;20209;-75
2021/05/03 02:36:26;;;;;;;7.13;5.20;;;3.30;99.90;;;;;;5030712;28;20228;-75
2021/05/03 02:38:51;;;;;;;6.03;4.60;;;3.30;99.90;;;;;;5014462;28;20247;-76
2021/05/03 02:41:17;;;;;;;9.83;5.50;;;3.30;99.90;;;;;;5032091;28;20216;-76
2021/05/03 02:43:43;;;;;;;7.07;5.30;;;3.20;99.90;;;;;;5030668;28;20207;-75
2021/05/03 02:46:08;;;;;;;6.40;5.30;;;3.10;99.90;;;;;;5031486;28;20201;-75
2021/05/03 02:48:34;;;;;;;8.07;5.13;;;3.10;99.90;;;;;;5014368;28;20691;-76
2021/05/03 02:50:59;;;;;;;5.83;5.13;;;3.10;99.90;;;;;;5030785;28;20173;-76
2021/05/03 02:53:25;;;;;;;6.57;5.20;;;3.10;99.90;;;;;;5030641;28;20183;-75
2021/05/03 02:55:50;;;;;;;7.60;5.33;;;3.10;99.90;;;;;;5013838;28;20198;-76
2021/05/03 02:58:16;;;;;;;6.50;4.97;;;3.00;99.90;;;;;;5014425;28;20181;-77
2021/05/03 03:00:41;;;;;;;7.60;5.23;;;3.00;99.90;;;;;;5030675;28;20205;-75
2021/05/03 03:03:07;;;;;;;8.93;5.13;;;3.00;99.90;;;;;;5030407;28;20201;-76
2021/05/03 03:05:32;;;;;;;6.47;4.97;;;3.00;99.90;;;;;;5030409;28;20225;-75
2021/05/03 03:08:01;;;;;;;7.53;5.40;;;3.00;99.90;;;;;;5030317;28;20185;-76
2021/05/03 03:10:27;;;;;;;7.37;5.17;;;3.10;99.90;;;;;;5030575;28;20648;-75
2021/05/03 03:12:52;;;;;;;10.97;5.93;;;3.20;99.90;;;;;;4997692;28;20189;-76
2021/05/03 03:15:18;;;;;;;7.03;5.13;;;3.20;99.90;;;;;;4997437;28;20661;-76
2021/05/03 03:17:48;;;;;;;6.77;4.97;;;3.40;99.90;;;;;;4997989;28;20265;-75
2021/05/03 03:20:13;;;;;;;6.70;5.13;;;3.60;99.90;;;;;;5014132;28;20178;-74
2021/05/03 03:22:39;;;;;;;9.23;5.60;;;3.70;99.90;;;;;;5015697;28;20178;-74
2021/05/03 03:25:05;;;;;;;7.73;5.37;;;3.70;99.90;;;;;;5009448;28;20207;-75
2021/05/03 03:27:31;;;;;;;6.47;5.57;;;3.70;99.90;;;;;;5044840;28;20876;-74
2021/05/03 03:29:57;;;;;;;9.43;5.40;;;3.70;99.90;;;;;;5044445;28;20170;-75
2021/05/03 03:32:23;;;;;;;7.87;5.40;;;3.90;99.90;;;;;;5044666;28;20203;-76
2021/05/03 03:34:48;;;;;;;8.43;5.47;;;3.90;99.90;;;;;;5001138;28;20210;-76
2021/05/03 03:37:14;;;;;;;6.47;5.63;;;3.80;99.90;;;;;;5035326;28;20214;-75
2021/05/03 03:39:40;;;;;;;6.13;5.47;;;3.90;99.90;;;;;;5017615;28;20174;-74
2021/05/03 03:42:05;;;;;;;7.57;5.20;;;3.80;99.90;;;;;;5017532;28;20182;-76
2021/05/03 03:44:31;;;;;;;7.30;4.93;;;3.70;99.90;;;;;;5016909;28;20296;-76
2021/05/03 03:46:56;;;;;;;9.07;6.07;;;3.70;99.90;;;;;;5034220;28;20584;-73
2021/05/03 03:49:22;;;;;;;8.40;5.70;;;3.80;99.90;;;;;;5034058;28;20181;-74
2021/05/03 03:51:47;;;;;;;6.63;5.67;;;3.70;99.90;;;;;;5034107;28;20673;-73
2021/05/03 03:54:13;;;;;;;7.07;5.60;;;3.70;99.90;;;;;;5034023;28;20182;-73
2021/05/03 03:56:38;;;;;;;9.87;5.40;;;3.60;99.90;;;;;;5008905;28;20211;-72
2021/05/03 03:59:07;;;;;;;7.47;5.70;;;3.60;99.90;;;;;;5033852;28;20175;-74
2021/05/03 04:01:34;;;;;;;6.90;5.50;;;3.50;99.90;;;;;;5034790;28;20556;-74
2021/05/03 04:04:03;;;;;;;10.10;5.97;;;3.40;99.90;;;;;;5033728;28;20251;-76
2021/05/03 04:09:08;;;;;;;6.20;5.43;;;3.30;99.90;;;;;;5034025;28;20178;-76
2021/05/03 04:21:02;;;;;;;8.10;6.03;;;3.50;99.90;;;;;;5033721;28;20216;-75
2021/05/03 04:25:16;;;;;;;7.93;6.20;;;3.80;99.90;;;;;;5033108;28;20225;-77
2021/05/03 04:27:42;;;;;;;8.03;6.27;;;3.80;99.90;;;;;;5019435;28;20243;-76
2021/05/03 04:30:08;;;;;;;10.60;6.27;;;3.70;99.90;;;;;;5033230;28;20254;-72
2021/05/03 04:32:34;;;;;;;8.40;6.37;;;3.70;99.90;;;;;;5033157;28;20667;-73
2021/05/03 04:35:00;;;;;;;9.97;6.37;;;3.70;99.90;;;;;;5032300;28;20287;-74
2021/05/03 04:37:25;;;;;;;9.63;6.80;;;3.60;99.90;;;;;;5032959;28;20576;-73
2021/05/03 04:39:51;;;;;;;8.90;6.63;;;3.70;99.90;;;;;;5034275;28;20547;-74
2021/05/03 04:42:17;;;;;;;9.70;7.00;;;3.70;99.90;;;;;;5033114;28;20179;-73
2021/05/03 04:44:42;;;;;;;9.77;6.90;;;3.70;99.90;;;;;;5031873;28;20207;-74
2021/05/03 04:47:08;;;;;;;9.07;6.60;;;3.70;99.90;;;;;;5032700;28;20226;-74
2021/05/03 04:49:33;;;;;;;10.03;6.60;;;3.70;99.90;;;;;;5032996;28;20177;-74
2021/05/03 04:51:59;;;;;;;11.10;6.77;;;3.80;99.90;;;;;;5032911;28;20198;-74
2021/05/03 04:54:24;;;;;;;9.67;6.90;;;3.80;99.90;;;;;;5032627;28;20179;-74
2021/05/03 04:56:50;;;;;;;8.93;6.93;;;3.80;99.90;;;;;;5033740;28;20559;-74
2021/05/03 04:59:15;;;;;;;9.53;7.07;;;3.80;99.90;;;;;;5033939;28;20555;-73
2021/05/03 05:01:41;;;;;;;8.50;6.83;;;3.80;99.90;;;;;;5032585;28;20555;-73
2021/05/03 05:04:06;;;;;;;10.93;7.47;;;3.90;99.90;;;;;;5032538;28;20733;-73
2021/05/03 05:06:32;;;;;;;8.80;6.70;;;4.10;99.90;;;;;;5032161;28;20674;-74
2021/05/03 05:08:58;;;;;;;11.63;7.40;;;4.20;99.90;;;;;;5015975;28;20539;-74
2021/05/03 05:11:23;;;;;;;10.27;7.43;;;4.20;99.90;;;;;;5031440;28;20174;-74
2021/05/03 05:13:49;;;;;;;9.50;7.07;;;4.40;99.90;;;;;;5032411;28;20200;-74
2021/05/03 05:16:14;;;;;;;12.17;7.53;;;4.40;99.90;;;;;;5032147;28;20200;-77
2021/05/03 05:18:40;;;;;;;10.07;7.40;;;4.40;99.90;;;;;;5032278;28;20192;-74
2021/05/03 05:21:05;;;;;;;12.23;7.90;;;4.40;99.90;;;;;;5032326;28;20192;-74
2021/05/03 05:23:31;;;;;;;10.57;7.93;;;4.40;99.90;;;;;;5032174;28;20281;-74
2021/05/03 05:25:56;;;;;;;12.47;7.93;;;4.40;99.90;;;;;;5031913;28;20198;-75
2021/05/03 05:28:22;;;;;;;12.63;8.87;;;4.50;99.90;;;;;;5032176;28;20179;-74
2021/05/03 05:30:47;;;;;;;15.60;8.07;;;4.50;99.90;;;;;;5039856;28;20243;-76
2021/05/03 05:33:13;;;;;;;9.87;7.57;;;4.60;99.90;;;;;;5010238;28;20173;-75
2021/05/03 05:35:38;;;;;;;11.93;8.00;;;4.60;99.90;;;;;;5027636;28;20194;-74
2021/05/03 05:38:04;;;;;;;10.83;8.13;;;4.70;99.90;;;;;;5042653;28;20258;-75
2021/05/03 05:40:29;;;;;;;10.53;7.97;;;4.70;99.90;;;;;;5043881;28;20189;-75
2021/05/03 05:42:55;;;;;;;12.27;8.67;;;4.80;99.90;;;;;;5035995;28;20213;-75
2021/05/03 05:45:20;;;;;;;9.93;7.73;;;4.90;99.90;;;;;;5036352;28;20261;-76
2021/05/03 05:47:46;;;;;;;12.00;8.40;;;5.10;99.90;;;;;;5032604;28;20169;-75
2021/05/03 05:50:12;;;;;;;12.53;7.77;;;5.70;99.90;;;;;;5019186;28;20209;-76
2021/05/03 05:52:37;;;;;;;10.20;7.50;;;6.50;99.90;;;;;;5042109;28;20174;-75
2021/05/03 05:55:03;;;;;;;10.70;7.03;;;7.40;99.90;;;;;;5023477;28;20183;-75
2021/05/03 05:57:29;;;;;;;10.80;7.20;;;8.20;99.90;;;;;;5039932;28;20682;-74
2021/05/03 05:59:54;;;;;;;9.33;6.53;;;9.00;99.90;;;;;;5041633;28;20212;-75
2021/05/03 06:02:20;;;;;;;8.80;6.63;;;9.40;99.90;;;;;;5025258;28;20166;-75
2021/05/03 06:04:46;;;;;;;8.53;6.73;;;9.20;99.90;;;;;;5023522;28;20217;-74
2021/05/03 06:07:11;;;;;;;10.10;6.60;;;8.80;99.90;;;;;;5025989;28;20190;-74
2021/05/03 06:09:37;;;;;;;9.27;6.17;;;8.50;99.90;;;;;;5024966;28;20208;-75
2021/05/03 06:12:03;;;;;;;9.53;6.53;;;8.20;99.90;;;;;;5039020;28;20189;-75
2021/05/03 06:14:28;;;;;;;9.33;6.47;;;8.20;99.90;;;;;;5041820;28;20281;-75
2021/05/03 06:16:54;;;;;;;9.40;6.90;;;8.40;99.90;;;;;;5039000;28;20667;-76
2021/05/03 06:19:19;;;;;;;10.50;6.77;;;8.50;99.90;;;;;;5038764;28;20602;-76
2021/05/03 06:21:45;;;;;;;7.87;6.30;;;8.70;99.90;;;;;;5036495;28;20195;-76
2021/05/03 06:24:11;;;;;;;12.47;6.00;;;8.60;99.90;;;;;;5045976;28;20316;-76
2021/05/03 06:26:36;;;;;;;9.03;5.60;;;8.50;99.90;;;;;;5055799;28;20200;-76
2021/05/03 06:29:02;;;;;;;8.70;5.50;;;8.30;99.90;;;;;;5032779;28;20185;-75
2021/05/03 06:31:30;;;;;;;13.77;6.53;;;8.50;99.90;;;;;;5046275;28;20221;-76
2021/05/03 06:33:56;;;;;;;10.00;6.20;;;8.80;99.90;;;;;;5052497;28;20182;-76
2021/05/03 06:36:21;;;;;;;10.53;5.93;;;9.10;99.90;;;;;;5046065;28;20542;-77
2021/05/03 06:38:47;;;;;;;8.13;5.87;;;9.10;99.90;;;;;;5021878;28;20632;-76
2021/05/03 06:41:12;;;;;;;8.33;5.90;;;8.90;99.90;;;;;;5034142;28;20640;-76
2021/05/03 06:43:38;;;;;;;7.80;5.40;;;8.80;99.90;;;;;;5034418;28;20234;-77
2021/05/03 06:46:03;;;;;;;7.73;5.00;;;8.70;99.90;;;;;;5029587;28;20242;-76
2021/05/03 06:48:29;;;;;;;8.17;5.40;;;8.80;99.90;;;;;;5031826;28;20169;-76
2021/05/03 06:50:54;;;;;;;7.73;4.77;;;8.80;99.90;;;;;;5030878;28;20182;-76
2021/05/03 06:53:20;;;;;;;6.23;4.60;;;8.70;99.90;;;;;;5031857;28;20179;-76
2021/05/03 06:55:46;;;;;;;8.20;5.13;;;8.80;99.90;;;;;;5033518;28;20682;-74
2021/05/03 06:58:12;;;;;;;10.43;5.73;;;8.80;99.90;;;;;;5055261;28;20803;-75
2021/05/03 07:00:40;;;;;;;7.33;4.90;;;8.70;99.90;;;;;;5026701;28;20638;-77
2021/05/03 07:03:10;;;;;;;6.60;4.27;;;8.90;99.90;;;;;;5030678;28;20202;-79
2021/05/03 07:05:36;;;;;;;6.80;4.50;;;9.10;99.90;;;;;;5014555;28;20218;-76
2021/05/03 07:08:02;;;;;;;7.43;4.80;;;9.30;99.90;;;;;;5014247;28;20231;-75
2021/05/03 07:10:27;;;;;;;9.27;4.70;;;9.10;99.90;;;;;;5014339;28;20573;-75
2021/05/03 07:12:53;;;;;;;12.50;5.30;;;8.90;99.90;;;;;;5014066;28;20178;-75
2021/05/03 07:15:19;;;;;;;6.87;5.00;;;9.00;99.90;;;;;;5030363;28;20178;-75
2021/05/03 07:17:46;;;;;;;6.77;4.97;;;9.20;99.90;;;;;;5014186;28;20178;-74
2021/05/03 07:20:12;;;;;;;7.57;5.40;;;9.60;99.90;;;;;;5030425;28;20205;-74
2021/05/03 07:22:37;;;;;;;6.90;4.80;;;9.80;99.90;;;;;;5030665;28;20600;-73
2021/05/03 07:25:05;;;;;;;7.00;5.10;;;9.50;99.90;;;;;;5013825;28;20174;-74
2021/05/03 07:27:30;;;;;;;6.77;4.90;;;9.50;99.90;;;;;;5030774;28;20202;-73
2021/05/03 07:29:56;;;;;;;7.43;4.93;;;9.60;99.90;;;;;;5031568;28;20179;-74
2021/05/03 07:32:21;;;;;;;5.97;5.00;;;9.90;99.90;;;;;;5030380;28;20188;-73
2021/05/03 07:34:47;;;;;;;7.00;5.17;;;9.90;99.90;;;;;;5030087;28;20254;-73
2021/05/03 07:37:12;;;;;;;6.50;4.17;;;10.20;99.90;;;;;;5030040;28;20303;-74
2021/05/03 07:39:38;;;;;;;7.53;5.07;;;10.40;99.90;;;;;;5030305;28;20648;-74
2021/05/03 07:42:04;;;;;;;6.80;4.97;;;10.10;99.90;;;;;;5031402;28;20175;-74
2021/05/03 07:44:29;;;;;;;5.60;4.93;;;10.20;99.90;;;;;;5037446;28;20242;-73
2021/05/03 07:46:55;;;;;;;8.67;5.47;;;10.20;99.90;;;;;;5021722;28;20678;-73
2021/05/03 07:49:20;;;;;;;7.13;5.13;;;10.30;99.90;;;;;;5045571;28;20186;-72
2021/05/03 07:51:46;;;;;;;6.50;4.77;;;10.60;99.90;;;;;;5070205;28;20627;-72
2021/05/03 07:54:15;;;;;;;6.47;4.70;;;10.70;99.90;;;;;;5032401;28;20187;-72
2021/05/03 07:56:40;;;;;;;6.63;4.60;;;10.90;99.90;;;;;;5027931;28;20225;-72
2021/05/03 07:59:06;;;;;;;6.13;4.33;;;10.70;99.90;;;;;;5042869;28;20569;-72
2021/05/03 08:01:31;;;;;;;6.93;4.60;;;10.40;99.90;;;;;;5049558;28;20178;-72
2021/05/03 08:03:57;;;;;;;5.43;4.33;;;10.60;99.90;;;;;;5016768;28;20211;-72
2021/05/03 08:06:22;;;;;;;5.23;4.30;;;10.80;99.90;;;;;;5049630;28;20296;-73
2021/05/03 08:08:48;;;;;;;6.80;4.30;;;10.80;99.90;;;;;;5049989;28;20589;-73
2021/05/03 08:11:15;;;;;;;7.30;3.80;;;10.70;99.90;;;;;;5052984;28;20737;-73
2021/05/03 08:13:42;;;;;;;7.87;4.13;;;10.60;99.90;;;;;;5053361;28;20210;-73
2021/05/03 08:16:10;;;;;;;6.60;4.10;;;10.90;99.90;;;;;;5043831;28;20223;-73
2021/05/03 08:18:36;;;;;;;6.00;4.57;;;10.90;99.90;;;;;;5034516;28;20171;-73
2021/05/03 08:21:02;;;;;;;7.90;4.10;;;10.80;99.90;;;;;;5036736;28;20189;-73
2021/05/03 08:23:27;;;;;;;6.10;3.97;;;10.70;99.90;;;;;;5052868;28;20256;-72
2021/05/03 08:25:54;;;;;;;6.37;3.57;;;10.50;99.90;;;;;;5052445;28;20244;-73
2021/05/03 08:28:20;;;;;;;6.57;4.43;;;10.50;99.90;;;;;;5029332;28;20258;-73
2021/05/03 08:30:46;;;;;;;7.77;4.23;;;10.50;99.90;;;;;;5036527;28;20336;-73
2021/05/03 08:33:11;;;;;;;7.57;4.37;;;10.80;99.90;;;;;;5036623;28;20175;-73
2021/05/03 08:35:37;;;;;;;6.90;4.30;;;10.80;99.90;;;;;;5035983;28;20225;-73
2021/05/03 08:38:03;;;;;;;7.73;4.50;;;10.90;99.90;;;;;;5036563;28;20543;-73
2021/05/03 08:40:28;;;;;;;6.20;4.70;;;11.40;99.90;;;;;;5036377;28;20266;-73
2021/05/03 08:42:55;;;;;;;8.57;4.83;;;11.80;99.90;;;;;;5035964;28;20697;-73
2021/05/03 08:45:21;;;;;;;6.43;4.47;;;12.00;99.90;;;;;;5035970;28;20180;-71
2021/05/03 08:48:24;;;;;;;7.03;4.60;;;11.80;99.90;;;;;;5036281;28;20181;-71
2021/05/03 08:53:23;;;;;;;8.53;4.93;;;11.80;99.90;;;;;;5036011;28;20319;-71
2021/05/03 08:55:49;;;;;;;6.73;4.30;;;11.90;99.90;;;;;;5050665;28;20603;-71
2021/05/03 08:58:15;;;;;;;6.77;4.20;;;11.70;99.90;;;;;;5044664;28;20184;-71
2021/05/03 09:00:41;;;;;;;7.90;4.40;;;11.80;99.90;;;;;;5043096;28;20203;-70
2021/05/03 09:03:09;;;;;;;6.07;4.80;;;12.10;99.90;;;;;;5023577;28;20201;-70
2021/05/03 09:05:35;;;;;;;5.27;3.93;;;12.20;99.90;;;;;;5038571;28;20208;-70
2021/05/03 09:08:00;;;;;;;9.63;4.23;;;12.60;99.90;;;;;;5042744;28;20174;-70
2021/05/03 09:10:26;;;;;;;5.60;3.97;;;12.70;99.90;;;;;;5025031;28;20173;-70
2021/05/03 09:12:52;;;;;;;6.00;4.20;;;12.80;99.90;;;;;;5007858;28;20179;-71
2021/05/03 09:15:23;;;;;;;5.73;3.90;;;12.50;99.90;;;;;;5026365;28;20260;-71
2021/05/03 09:17:49;;;;;;;7.03;4.30;;;12.70;99.90;;;;;;5041444;28;20242;-70
2021/05/03 09:20:22;;;;;;;5.83;4.20;;;12.80;99.90;;;;;;5044268;28;20181;-71
2021/05/03 09:25:47;;;;;;;8.43;4.70;;;13.50;99.90;;;;;;5023778;28;20687;-71
2021/05/03 09:28:13;;;;;;;8.13;5.03;;;13.40;99.90;;;;;;5014276;28;20511;-74
2021/05/03 09:30:38;;;;;;;6.40;4.43;;;13.60;99.90;;;;;;5037737;28;20184;-75
2021/05/03 09:33:23;;;;;;;6.03;4.07;;;13.80;99.90;;;;;;5031760;28;20186;-71
2021/05/03 09:35:58;;;;;;;4.93;4.13;;;14.10;99.90;;;;;;5027916;28;20677;-70
2021/05/03 09:38:44;;;;;;;7.57;4.30;;;13.80;99.90;;;;;;5018714;28;20182;-73
2021/05/03 09:41:22;;;;;;;7.53;4.30;;;14.00;99.90;;;;;;5019243;28;20182;-73
2021/05/03 09:43:55;;;;;;;5.43;4.03;;;14.00;99.90;;;;;;5039890;28;20665;-73
2021/05/03 09:46:33;;;;;;;8.27;4.37;;;14.40;99.90;;;;;;5043212;28;20674;-73
2021/05/03 09:49:04;;;;;;;6.90;4.10;;;14.40;99.90;;;;;;5009867;28;20634;-75
2021/05/03 09:51:37;;;;;;;6.00;4.30;;;14.50;99.90;;;;;;5033748;28;20185;-72
2021/05/03 09:54:28;;;;;;;7.77;4.10;;;14.40;99.90;;;;;;5051137;28;20178;-74
2021/05/03 09:57:02;;;;;;;8.50;4.13;;;14.70;97.10;;;;;;5031715;28;20666;-73
2021/05/03 09:59:41;;;;;;;8.77;4.60;;;15.10;97.00;;;;;;5036333;28;20198;-74
2021/05/03 10:02:29;;;;;;;6.37;4.53;;;15.00;96.60;;;;;;5031556;28;20575;-74
2021/05/03 10:05:00;;;;;;;6.50;4.77;;;14.80;97.20;;;;;;5050757;28;20556;-72
2021/05/03 10:07:27;;;;;;;7.50;4.60;;;14.30;97.50;;;;;;5055705;28;20626;-75
2021/05/03 10:10:01;;;;;;;5.37;4.77;;;13.90;97.50;;;;;;5039835;28;20210;-73
2021/05/03 10:12:26;;;;;;;6.60;5.20;;;13.90;98.20;;;;;;5013780;28;20208;-74
2021/05/03 10:14:52;;;;;;;7.03;4.93;;;13.90;97.60;;;;;;5038342;28;20227;-73
2021/05/03 10:17:18;;;;;;;10.17;5.40;;;14.10;97.30;;;;;;5044582;28;20202;-73
2021/05/03 10:19:44;;;;;;;7.13;5.17;;;14.50;97.50;;;;;;5046277;28;20181;-74
2021/05/03 10:22:20;;;;;;;6.60;4.97;;;14.50;96.60;;;;;;5024322;28;20205;-73
2021/05/03 10:24:53;;;;;;;5.87;4.63;;;14.20;98.20;;;;;;5018044;28;20705;-73
2021/05/03 10:27:19;;;;;;;6.10;5.50;;;14.40;97.50;;;;;;5016010;28;20199;-74
2021/05/03 10:29:46;;;;;;;6.50;4.87;;;14.70;98.30;;;;;;5022815;28;20170;-74
2021/05/03 10:32:13;;;;;;;7.60;5.20;;;15.40;99.90;;;;;;5026439;28;20162;-74
2021/05/03 10:34:39;;;;;;;6.33;4.70;;;15.80;98.80;;;;;;5030853;28;20724;-74
2021/05/03 10:37:33;;;;;;;6.50;4.90;;;16.00;96.10;;;;;;5061918;28;20206;-74
2021/05/03 10:40:07;;;;;;;7.47;4.87;;;15.50;94.20;;;;;;5030087;28;20629;-74
2021/05/03 10:42:33;;;;;;;7.37;5.13;;;14.90;94.10;;;;;;5026560;28;20201;-74
2021/05/03 10:45:07;;;;;;;8.73;5.60;;;14.80;95.20;;;;;;5022739;28;20694;-74
2021/05/03 10:47:41;;;;;;;11.93;6.00;;;14.60;95.30;;;;;;5033619;28;20205;-73
2021/05/03 10:50:45;;;;;;;8.17;5.70;;;14.70;95.30;;;;;;5035300;28;20166;-73
2021/05/03 10:53:21;;;;;;;6.87;5.43;;;14.70;94.40;;;;;;5000347;28;20211;-74
2021/05/03 10:55:51;;;;;;;8.50;5.57;;;14.70;96.20;;;;;;5050141;28;20242;-74
2021/05/03 10:58:16;;;;;;;7.80;5.13;;;14.70;95.50;;;;;;5050390;28;20641;-73
2021/05/03 11:00:45;;;;;;;8.80;5.87;;;15.20;96.50;;;;;;5050286;28;20182;-74
2021/05/03 11:03:11;;;;;;;7.90;6.20;;;15.50;92.80;;;;;;5034114;28;20206;-73
2021/05/03 11:05:41;;;;;;;7.23;5.57;;;15.30;91.50;;;;;;5050100;28;20569;-74
2021/05/03 11:08:07;;;;;;;8.03;5.30;;;15.10;91.90;;;;;;5033782;28;20170;-73
2021/05/03 11:11:02;;;;;;;8.03;5.07;;;14.90;91.30;;;;;;5050136;28;20634;-74
2021/05/03 11:13:45;;;;;;;7.77;5.80;;;14.90;92.80;;;;;;5050327;28;20170;-73
2021/05/03 11:16:26;;;;;;;7.30;5.60;;;15.00;93.30;;;;;;5040158;28;20203;-73
2021/05/03 11:18:53;;;;;;;7.10;5.03;;;15.30;93.10;;;;;;5031607;28;20178;-73
2021/05/03 11:21:19;;;;;;;6.63;5.10;;;15.00;91.70;;;;;;5014112;28;20181;-73
2021/05/03 11:23:45;;;;;;;10.00;5.67;;;14.70;92.30;;;;;;5013789;28;20199;-73
2021/05/03 11:26:29;;;;;;;7.43;5.67;;;14.30;93.50;;;;;;5031131;28;20201;-73
2021/05/03 11:29:11;;;;;;;7.77;5.43;;;14.70;96.40;;;;;;5030183;28;20175;-72
2021/05/03 11:31:37;;;;;;;7.00;5.23;;;15.20;93.70;;;;;;5030253;28;20202;-72
2021/05/03 11:34:08;;;;;;;7.77;5.37;;;15.20;94.00;;;;;;5030138;28;20249;-72
2021/05/03 11:36:39;;;;;;;7.63;5.77;;;15.20;93.30;;;;;;5030119;28;20686;-73
2021/05/03 11:39:14;;;;;;;5.70;5.10;;;14.50;91.80;;;;;;5030251;28;20171;-72
2021/05/03 11:44:24;;;;;;;8.13;5.50;;;14.20;94.00;;;;;;5033075;28;20260;-74
2021/05/03 11:46:50;;;;;;;7.27;5.57;;;14.10;93.50;;;;;;5004421;28;20236;-73
2021/05/03 11:49:18;;;;;;;6.23;5.40;;;14.00;92.90;;;;;;5027131;28;20579;-74
2021/05/03 11:51:49;;;;;;;7.73;5.70;;;13.80;93.10;;;;;;5021344;28;20772;-73
2021/05/03 11:54:29;;;;;;;8.63;5.70;;;13.70;93.80;;;;;;5048342;28;20220;-72
2021/05/03 11:57:18;;;;;;;7.97;5.50;;;13.80;94.20;;;;;;5048255;28;20207;-73
2021/05/03 11:59:45;;;;;;;6.70;4.93;;;14.00;94.00;;;;;;5033883;28;20177;-73
2021/05/03 12:02:12;;;;;;;7.53;5.53;;;14.30;96.20;;;;;;5009462;28;20798;-72
2021/05/03 12:04:48;;;;;;;7.10;5.33;;;14.50;94.50;;;;;;5033595;28;20253;-72
2021/05/03 12:07:24;;;;;;;8.03;5.70;;;14.30;92.10;;;;;;5017089;28;20191;-72
2021/05/03 12:10:00;;;;;;;7.87;5.80;;;13.90;92.80;;;;;;5006863;28;20174;-72
2021/05/03 12:12:31;;;;;;;7.73;5.87;;;13.70;93.90;;;;;;5043159;28;20700;-73
2021/05/03 12:14:56;;;;;;;7.93;5.60;;;13.50;95.30;;;;;;5037591;28;20176;-73
2021/05/03 12:17:24;;;;;;;5.93;5.33;;;13.50;96.90;;;;;;5016542;28;20195;-74
2021/05/03 12:20:02;;;;;;;14.13;6.67;;;13.60;96.10;;;;;;5033319;28;20193;-72
2021/05/03 12:22:28;;;;;;;84.50;13.03;;;13.70;94.40;;;;;;5018156;28;20178;-72
2021/05/03 12:24:58;;;;;;;6.43;5.40;;;13.70;96.40;;;;;;5037636;28;20207;-72
2021/05/03 12:27:27;;;;;;;8.03;5.63;;;13.90;96.40;;;;;;5036575;28;20202;-72
2021/05/03 12:29:54;;;;;;;7.83;5.80;;;14.00;95.50;;;;;;5035080;28;20177;-72
2021/05/03 12:32:19;;;;;;;8.13;6.00;;;14.20;96.40;;;;;;5016854;28;20596;-71
2021/05/03 12:41:29;;;;;;;7.20;5.80;;;14.70;95.10;;;;;;5053433;28;20593;-72
2021/05/03 12:43:58;;;;;;;10.50;6.10;;;14.50;94.70;;;;;;5036152;28;20198;-73
2021/05/03 12:46:33;;;;;;;8.80;6.77;;;14.20;97.80;;;;;;5035999;28;20198;-73
2021/05/03 12:49:07;;;;;;;11.37;6.97;;;13.70;99.90;;;;;;5052124;28;20186;-73
2021/05/03 12:51:40;;;;;;;7.60;6.77;;;13.10;99.90;;;;;;5053263;28;20230;-73
2021/05/03 12:59:55;;;;;;;7.90;6.80;;;12.10;99.90;;;;;;5067828;28;20177;-76
2021/05/03 13:02:47;;;;;;;8.97;6.30;;;12.30;99.90;;;;;;5035665;28;20188;-72
2021/05/03 13:11:00;;;;;;;7.77;6.20;;;13.70;99.90;;;;;;5025600;28;20292;-73
2021/05/03 13:25:16;;;;;;;7.67;6.27;;;15.50;99.90;;;;;;5026383;28;20233;-73
2021/05/03 13:31:04;;;;;;;7.33;5.90;;;16.00;96.40;;;;;;5036987;28;20191;-73
2021/05/03 13:33:29;;;;;;;8.37;5.53;;;15.80;93.80;;;;;;5015591;28;20191;-72
2021/05/03 13:35:55;;;;;;;6.87;5.23;;;15.60;90.90;;;;;;5032483;28;20286;-73
2021/05/03 13:38:20;;;;;;;6.30;4.40;;;15.30;91.70;;;;;;5053667;28;20218;-73
2021/05/03 13:40:46;;;;;;;7.03;5.30;;;15.00;89.60;;;;;;5047644;28;20190;-73
2021/05/03 13:43:11;;;;;;;6.10;5.20;;;14.90;90.80;;;;;;5041442;28;20257;-73
2021/05/03 13:45:37;;;;;;;5.70;5.10;;;14.90;91.90;;;;;;5034877;28;20269;-72
2021/05/03 13:48:03;;;;;;;5.33;4.83;;;14.80;90.80;;;;;;5031881;28;20167;-73